sensor_id;sensor_type;location;lat;lon;timestamp;P1;durP1;ratioP1;P2;durP2;ratioP2
4959;SDS011;2495;48.200;11.532;2023-04-24T00:03:37;13.10;;;12.50;;
4959;SDS011;2495;48.200;11.532;2023-04-24T00:08:39;12.73;;;12.13;;
4959;SDS011;2495;48.200;11.532;2023-04-24T00:13:40;13.73;;;13.03;;
4959;SDS011;2495;48.200;11.532;2023-04-24T00:18:42;14.20;;;13.50;;
4959;SDS011;2495;48.200;11.532;2023-04-24T00:23:43;14.50;;;13.80;;
4959;SDS011;2495;48.200;11.532;2023-04-24T00:28:44;10.90;;;10.40;;
4959;SDS011;2495;48.200;11.532;2023-04-24T00:33:46;15.70;;;14.90;;
4959;SDS011;2495;48.200;11.532;2023-04-24T00:38:47;16.27;;;15.47;;
4959;SDS011;2495;48.200;11.532;2023-04-24T00:43:48;16.20;;;15.40;;
4959;SDS011;2495;48.200;11.532;2023-04-24T00:48:50;16.10;;;15.30;;
4959;SDS011;2495;48.200;11.532;2023-04-24T00:53:51;14.70;;;14.00;;
4959;SDS011;2495;48.200;11.532;2023-04-24T00:58:52;11.52;;;10.93;;
4959;SDS011;2495;48.200;11.532;2023-04-24T01:03:53;15.70;;;14.90;;
4959;SDS011;2495;48.200;11.532;2023-04-24T01:08:55;15.80;;;15.00;;
4959;SDS011;2495;48.200;11.532;2023-04-24T01:13:56;12.30;;;11.70;;
4959;SDS011;2495;48.200;11.532;2023-04-24T01:18:57;15.90;;;15.10;;
4959;SDS011;2495;48.200;11.532;2023-04-24T01:34:35;12.90;;;12.30;;
4959;SDS011;2495;48.200;11.532;2023-04-24T01:39:36;17.60;;;16.70;;
4959;SDS011;2495;48.200;11.532;2023-04-24T01:44:37;18.00;;;17.10;;
4959;SDS011;2495;48.200;11.532;2023-04-24T01:49:39;17.73;;;16.83;;
4959;SDS011;2495;48.200;11.532;2023-04-24T01:54:40;17.80;;;16.90;;
4959;SDS011;2495;48.200;11.532;2023-04-24T01:59:42;18.00;;;17.10;;
4959;SDS011;2495;48.200;11.532;2023-04-24T02:04:43;16.80;;;16.00;;
4959;SDS011;2495;48.200;11.532;2023-04-24T02:09:44;17.07;;;16.20;;
4959;SDS011;2495;48.200;11.532;2023-04-24T02:14:46;18.60;;;17.60;;
4959;SDS011;2495;48.200;11.532;2023-04-24T02:19:47;18.30;;;17.30;;
4959;SDS011;2495;48.200;11.532;2023-04-24T02:24:48;16.60;;;15.80;;
4959;SDS011;2495;48.200;11.532;2023-04-24T02:29:49;17.80;;;16.90;;
4959;SDS011;2495;48.200;11.532;2023-04-24T02:34:50;18.50;;;17.50;;
4959;SDS011;2495;48.200;11.532;2023-04-24T02:39:52;19.00;;;18.00;;
4959;SDS011;2495;48.200;11.532;2023-04-24T02:44:53;18.57;;;17.57;;
4959;SDS011;2495;48.200;11.532;2023-04-24T02:49:54;19.10;;;18.10;;
4959;SDS011;2495;48.200;11.532;2023-04-24T02:54:56;15.20;;;14.40;;
4959;SDS011;2495;48.200;11.532;2023-04-24T02:59:57;19.50;;;18.40;;
4959;SDS011;2495;48.200;11.532;2023-04-24T03:04:58;17.83;;;16.93;;
4959;SDS011;2495;48.200;11.532;2023-04-24T03:09:59;18.43;;;17.43;;
4959;SDS011;2495;48.200;11.532;2023-04-24T03:15:01;19.00;;;18.00;;
4959;SDS011;2495;48.200;11.532;2023-04-24T03:20:02;18.90;;;17.90;;
4959;SDS011;2495;48.200;11.532;2023-04-24T03:25:04;16.20;;;15.30;;
4959;SDS011;2495;48.200;11.532;2023-04-24T03:30:08;19.80;;;18.70;;
4959;SDS011;2495;48.200;11.532;2023-04-24T03:35:10;17.43;;;16.53;;
4959;SDS011;2495;48.200;11.532;2023-04-24T03:40:12;18.90;;;17.90;;
4959;SDS011;2495;48.200;11.532;2023-04-24T03:45:14;18.60;;;17.60;;
4959;SDS011;2495;48.200;11.532;2023-04-24T03:50:15;19.00;;;18.00;;
4959;SDS011;2495;48.200;11.532;2023-04-24T03:55:16;17.50;;;16.60;;
4959;SDS011;2495;48.200;11.532;2023-04-24T04:00:17;23.40;;;21.90;;
4959;SDS011;2495;48.200;11.532;2023-04-24T04:05:19;24.40;;;22.80;;
4959;SDS011;2495;48.200;11.532;2023-04-24T04:10:20;25.20;;;23.40;;
4959;SDS011;2495;48.200;11.532;2023-04-24T04:15:21;21.10;;;19.70;;
4959;SDS011;2495;48.200;11.532;2023-04-24T04:20:22;24.60;;;22.80;;
4959;SDS011;2495;48.200;11.532;2023-04-24T04:25:24;24.50;;;22.80;;
4959;SDS011;2495;48.200;11.532;2023-04-24T04:30:26;25.50;;;23.60;;
4959;SDS011;2495;48.200;11.532;2023-04-24T04:35:27;24.73;;;22.93;;
4959;SDS011;2495;48.200;11.532;2023-04-24T04:40:28;25.10;;;23.30;;
4959;SDS011;2495;48.200;11.532;2023-04-24T04:45:30;25.20;;;23.40;;
4959;SDS011;2495;48.200;11.532;2023-04-24T04:50:31;25.10;;;23.30;;
4959;SDS011;2495;48.200;11.532;2023-04-24T04:55:32;25.00;;;23.30;;
4959;SDS011;2495;48.200;11.532;2023-04-24T05:00:34;26.00;;;24.10;;
4959;SDS011;2495;48.200;11.532;2023-04-24T05:05:35;25.70;;;24.00;;
4959;SDS011;2495;48.200;11.532;2023-04-24T05:10:36;25.87;;;24.07;;
4959;SDS011;2495;48.200;11.532;2023-04-24T05:15:38;22.37;;;20.87;;
4959;SDS011;2495;48.200;11.532;2023-04-24T05:20:40;25.70;;;24.00;;
4959;SDS011;2495;48.200;11.532;2023-04-24T05:25:41;25.60;;;23.80;;
4959;SDS011;2495;48.200;11.532;2023-04-24T05:30:46;26.10;;;24.30;;
4959;SDS011;2495;48.200;11.532;2023-04-24T05:35:48;25.70;;;23.90;;
4959;SDS011;2495;48.200;11.532;2023-04-24T05:40:49;24.80;;;23.23;;
4959;SDS011;2495;48.200;11.532;2023-04-24T05:45:50;25.10;;;23.40;;
4959;SDS011;2495;48.200;11.532;2023-04-24T05:50:54;25.00;;;23.30;;
4959;SDS011;2495;48.200;11.532;2023-04-24T05:55:56;24.63;;;23.03;;
4959;SDS011;2495;48.200;11.532;2023-04-24T06:00:57;24.90;;;23.30;;
4959;SDS011;2495;48.200;11.532;2023-04-24T06:05:59;25.00;;;23.40;;
4959;SDS011;2495;48.200;11.532;2023-04-24T06:11:01;24.93;;;23.33;;
4959;SDS011;2495;48.200;11.532;2023-04-24T06:16:02;21.85;;;20.45;;
4959;SDS011;2495;48.200;11.532;2023-04-24T06:21:05;24.90;;;23.30;;
4959;SDS011;2495;48.200;11.532;2023-04-24T06:26:06;25.20;;;23.60;;
4959;SDS011;2495;48.200;11.532;2023-04-24T06:31:08;25.80;;;24.20;;
4959;SDS011;2495;48.200;11.532;2023-04-24T06:36:09;25.07;;;23.47;;
4959;SDS011;2495;48.200;11.532;2023-04-24T06:41:11;25.57;;;23.97;;
4959;SDS011;2495;48.200;11.532;2023-04-24T06:46:13;24.03;;;22.53;;
4959;SDS011;2495;48.200;11.532;2023-04-24T06:51:14;24.50;;;23.00;;
4959;SDS011;2495;48.200;11.532;2023-04-24T06:56:16;24.50;;;23.10;;
4959;SDS011;2495;48.200;11.532;2023-04-24T07:01:18;24.20;;;22.80;;
4959;SDS011;2495;48.200;11.532;2023-04-24T07:06:19;24.90;;;23.30;;
4959;SDS011;2495;48.200;11.532;2023-04-24T07:11:21;23.80;;;22.40;;
4959;SDS011;2495;48.200;11.532;2023-04-24T07:16:22;23.80;;;22.40;;
4959;SDS011;2495;48.200;11.532;2023-04-24T07:21:24;24.27;;;22.87;;
4959;SDS011;2495;48.200;11.532;2023-04-24T07:26:28;23.70;;;22.30;;
4959;SDS011;2495;48.200;11.532;2023-04-24T07:31:29;24.40;;;22.90;;
4959;SDS011;2495;48.200;11.532;2023-04-24T07:36:30;23.80;;;22.40;;
4959;SDS011;2495;48.200;11.532;2023-04-24T07:41:32;23.97;;;22.57;;
4959;SDS011;2495;48.200;11.532;2023-04-24T07:46:34;24.37;;;22.87;;
4959;SDS011;2495;48.200;11.532;2023-04-24T07:51:36;24.13;;;22.73;;
4959;SDS011;2495;48.200;11.532;2023-04-24T07:56:37;23.60;;;22.20;;
4959;SDS011;2495;48.200;11.532;2023-04-24T08:01:41;22.90;;;21.60;;
4959;SDS011;2495;48.200;11.532;2023-04-24T08:06:43;21.77;;;20.57;;
4959;SDS011;2495;48.200;11.532;2023-04-24T08:11:44;23.10;;;21.70;;
4959;SDS011;2495;48.200;11.532;2023-04-24T08:16:46;22.30;;;21.00;;
4959;SDS011;2495;48.200;11.532;2023-04-24T08:21:48;22.90;;;21.60;;
4959;SDS011;2495;48.200;11.532;2023-04-24T08:26:49;23.30;;;21.90;;
4959;SDS011;2495;48.200;11.532;2023-04-24T08:31:51;23.07;;;21.77;;
4959;SDS011;2495;48.200;11.532;2023-04-24T08:36:52;23.27;;;21.97;;
4959;SDS011;2495;48.200;11.532;2023-04-24T08:41:54;23.07;;;21.77;;
4959;SDS011;2495;48.200;11.532;2023-04-24T08:46:55;22.60;;;21.30;;
4959;SDS011;2495;48.200;11.532;2023-04-24T08:51:56;22.67;;;21.37;;
4959;SDS011;2495;48.200;11.532;2023-04-24T08:56:59;21.50;;;20.30;;
4959;SDS011;2495;48.200;11.532;2023-04-24T09:01:59;20.63;;;19.53;;
4959;SDS011;2495;48.200;11.532;2023-04-24T09:07:01;20.30;;;19.20;;
4959;SDS011;2495;48.200;11.532;2023-04-24T09:12:02;19.27;;;18.27;;
4959;SDS011;2495;48.200;11.532;2023-04-24T09:17:04;19.77;;;18.77;;
4959;SDS011;2495;48.200;11.532;2023-04-24T09:22:06;20.10;;;19.00;;
4959;SDS011;2495;48.200;11.532;2023-04-24T09:27:07;19.53;;;18.53;;
4959;SDS011;2495;48.200;11.532;2023-04-24T09:32:18;18.20;;;17.30;;
4959;SDS011;2495;48.200;11.532;2023-04-24T09:37:28;19.03;;;18.03;;
4959;SDS011;2495;48.200;11.532;2023-04-24T09:47:40;13.80;;;13.10;;
4959;SDS011;2495;48.200;11.532;2023-04-24T09:53:06;17.17;;;16.27;;
4959;SDS011;2495;48.200;11.532;2023-04-24T09:57:58;15.97;;;15.17;;
4959;SDS011;2495;48.200;11.532;2023-04-24T10:03:00;13.90;;;13.20;;
4959;SDS011;2495;48.200;11.532;2023-04-24T10:23:52;6.50;;;6.20;;
4959;SDS011;2495;48.200;11.532;2023-04-24T10:36:17;1.50;;;1.40;;
4959;SDS011;2495;48.200;11.532;2023-04-24T10:41:19;1.10;;;0.90;;
4959;SDS011;2495;48.200;11.532;2023-04-24T10:46:20;1.10;;;1.00;;
4959;SDS011;2495;48.200;11.532;2023-04-24T10:51:22;8.87;;;8.47;;
4959;SDS011;2495;48.200;11.532;2023-04-24T10:56:24;17.67;;;16.77;;
4959;SDS011;2495;48.200;11.532;2023-04-24T11:01:27;18.23;;;17.33;;
4959;SDS011;2495;48.200;11.532;2023-04-24T11:06:31;18.83;;;17.83;;
4959;SDS011;2495;48.200;11.532;2023-04-24T11:11:29;18.50;;;17.60;;
4959;SDS011;2495;48.200;11.532;2023-04-24T11:21:58;20.27;;;19.27;;
4959;SDS011;2495;48.200;11.532;2023-04-24T11:37:25;19.30;;;18.30;;
4959;SDS011;2495;48.200;11.532;2023-04-24T11:42:25;16.67;;;15.87;;
4959;SDS011;2495;48.200;11.532;2023-04-24T11:47:27;19.20;;;18.20;;
4959;SDS011;2495;48.200;11.532;2023-04-24T11:52:31;17.50;;;16.60;;
4959;SDS011;2495;48.200;11.532;2023-04-24T11:57:32;16.80;;;16.00;;
4959;SDS011;2495;48.200;11.532;2023-04-24T12:02:34;12.63;;;12.03;;
4959;SDS011;2495;48.200;11.532;2023-04-24T12:07:41;9.73;;;9.23;;
4959;SDS011;2495;48.200;11.532;2023-04-24T12:12:43;5.97;;;5.67;;
4959;SDS011;2495;48.200;11.532;2023-04-24T12:17:45;1.50;;;1.40;;
4959;SDS011;2495;48.200;11.532;2023-04-24T12:22:47;1.20;;;1.00;;
4959;SDS011;2495;48.200;11.532;2023-04-24T12:33:05;1.10;;;0.70;;
4959;SDS011;2495;48.200;11.532;2023-04-24T12:38:08;1.10;;;0.70;;
4959;SDS011;2495;48.200;11.532;2023-04-24T12:43:15;1.00;;;0.60;;
4959;SDS011;2495;48.200;11.532;2023-04-24T12:48:16;1.10;;;0.70;;
4959;SDS011;2495;48.200;11.532;2023-04-24T12:53:20;1.10;;;0.70;;
4959;SDS011;2495;48.200;11.532;2023-04-24T12:58:22;1.00;;;0.70;;
4959;SDS011;2495;48.200;11.532;2023-04-24T13:03:23;1.00;;;0.60;;
4959;SDS011;2495;48.200;11.532;2023-04-24T13:08:24;1.00;;;0.70;;
4959;SDS011;2495;48.200;11.532;2023-04-24T13:13:26;1.10;;;0.70;;
4959;SDS011;2495;48.200;11.532;2023-04-24T13:18:29;1.00;;;0.70;;
4959;SDS011;2495;48.200;11.532;2023-04-24T13:23:30;1.00;;;0.60;;
4959;SDS011;2495;48.200;11.532;2023-04-24T13:28:32;1.00;;;0.60;;
4959;SDS011;2495;48.200;11.532;2023-04-24T13:33:33;1.00;;;0.60;;
4959;SDS011;2495;48.200;11.532;2023-04-24T13:43:48;1.00;;;0.60;;
4959;SDS011;2495;48.200;11.532;2023-04-24T13:48:50;1.00;;;0.60;;
4959;SDS011;2495;48.200;11.532;2023-04-24T13:53:51;1.00;;;0.60;;
4959;SDS011;2495;48.200;11.532;2023-04-24T13:58:53;1.00;;;0.60;;
4959;SDS011;2495;48.200;11.532;2023-04-24T14:03:57;1.00;;;0.60;;
4959;SDS011;2495;48.200;11.532;2023-04-24T14:08:59;1.00;;;0.60;;
4959;SDS011;2495;48.200;11.532;2023-04-24T14:14:00;1.00;;;0.60;;
4959;SDS011;2495;48.200;11.532;2023-04-24T14:19:02;0.97;;;0.60;;
4959;SDS011;2495;48.200;11.532;2023-04-24T14:24:04;1.00;;;0.50;;
4959;SDS011;2495;48.200;11.532;2023-04-24T14:29:06;1.00;;;0.60;;
4959;SDS011;2495;48.200;11.532;2023-04-24T14:34:07;1.00;;;0.60;;
4959;SDS011;2495;48.200;11.532;2023-04-24T14:39:12;1.00;;;0.57;;
4959;SDS011;2495;48.200;11.532;2023-04-24T14:44:13;1.00;;;0.60;;
4959;SDS011;2495;48.200;11.532;2023-04-24T14:49:15;0.90;;;0.50;;
4959;SDS011;2495;48.200;11.532;2023-04-24T14:54:16;1.00;;;0.60;;
4959;SDS011;2495;48.200;11.532;2023-04-24T14:59:18;1.00;;;0.60;;
4959;SDS011;2495;48.200;11.532;2023-04-24T15:04:19;1.00;;;0.53;;
4959;SDS011;2495;48.200;11.532;2023-04-24T15:09:21;1.00;;;0.60;;
4959;SDS011;2495;48.200;11.532;2023-04-24T15:14:22;1.00;;;0.60;;
4959;SDS011;2495;48.200;11.532;2023-04-24T15:19:24;1.00;;;0.60;;
4959;SDS011;2495;48.200;11.532;2023-04-24T15:24:26;1.00;;;0.60;;
4959;SDS011;2495;48.200;11.532;2023-04-24T15:29:28;1.00;;;0.50;;
4959;SDS011;2495;48.200;11.532;2023-04-24T15:34:29;1.00;;;0.60;;
4959;SDS011;2495;48.200;11.532;2023-04-24T15:39:30;1.00;;;0.50;;
4959;SDS011;2495;48.200;11.532;2023-04-24T15:44:32;1.00;;;0.60;;
4959;SDS011;2495;48.200;11.532;2023-04-24T15:49:33;1.00;;;0.50;;
4959;SDS011;2495;48.200;11.532;2023-04-24T15:54:34;1.00;;;0.60;;
4959;SDS011;2495;48.200;11.532;2023-04-24T15:59:36;1.00;;;0.60;;
4959;SDS011;2495;48.200;11.532;2023-04-24T16:04:38;0.93;;;0.50;;
4959;SDS011;2495;48.200;11.532;2023-04-24T16:09:39;1.00;;;0.60;;
4959;SDS011;2495;48.200;11.532;2023-04-24T16:14:41;1.00;;;0.60;;
4959;SDS011;2495;48.200;11.532;2023-04-24T16:19:42;1.00;;;0.60;;
4959;SDS011;2495;48.200;11.532;2023-04-24T16:24:43;1.00;;;0.60;;
4959;SDS011;2495;48.200;11.532;2023-04-24T16:29:45;1.00;;;0.60;;
4959;SDS011;2495;48.200;11.532;2023-04-24T16:34:46;1.00;;;0.60;;
4959;SDS011;2495;48.200;11.532;2023-04-24T16:39:48;1.00;;;0.57;;
4959;SDS011;2495;48.200;11.532;2023-04-24T16:44:49;1.00;;;0.50;;
4959;SDS011;2495;48.200;11.532;2023-04-24T16:49:51;1.00;;;0.60;;
4959;SDS011;2495;48.200;11.532;2023-04-24T16:54:52;1.00;;;0.60;;
4959;SDS011;2495;48.200;11.532;2023-04-24T16:59:54;1.00;;;0.60;;
4959;SDS011;2495;48.200;11.532;2023-04-24T17:04:56;0.93;;;0.50;;
4959;SDS011;2495;48.200;11.532;2023-04-24T17:09:57;1.00;;;0.50;;
4959;SDS011;2495;48.200;11.532;2023-04-24T17:14:59;1.00;;;0.60;;
4959;SDS011;2495;48.200;11.532;2023-04-24T17:20:01;1.00;;;0.60;;
4959;SDS011;2495;48.200;11.532;2023-04-24T17:25:06;1.00;;;0.60;;
4959;SDS011;2495;48.200;11.532;2023-04-24T17:30:07;1.20;;;1.07;;
4959;SDS011;2495;48.200;11.532;2023-04-24T17:35:09;0.90;;;0.60;;
4959;SDS011;2495;48.200;11.532;2023-04-24T17:40:11;0.97;;;0.60;;
4959;SDS011;2495;48.200;11.532;2023-04-24T17:45:13;1.00;;;0.60;;
4959;SDS011;2495;48.200;11.532;2023-04-24T17:50:14;0.93;;;0.57;;
4959;SDS011;2495;48.200;11.532;2023-04-24T17:55:16;0.90;;;0.50;;
4959;SDS011;2495;48.200;11.532;2023-04-24T18:00:17;1.00;;;0.60;;
4959;SDS011;2495;48.200;11.532;2023-04-24T18:05:18;0.90;;;0.60;;
4959;SDS011;2495;48.200;11.532;2023-04-24T18:10:20;0.90;;;0.57;;
4959;SDS011;2495;48.200;11.532;2023-04-24T18:15:21;0.90;;;0.50;;
4959;SDS011;2495;48.200;11.532;2023-04-24T18:20:23;1.00;;;0.60;;
4959;SDS011;2495;48.200;11.532;2023-04-24T18:25:24;1.00;;;0.60;;
4959;SDS011;2495;48.200;11.532;2023-04-24T18:30:26;0.90;;;0.60;;
4959;SDS011;2495;48.200;11.532;2023-04-24T18:35:27;1.00;;;0.60;;
4959;SDS011;2495;48.200;11.532;2023-04-24T18:40:29;0.93;;;0.60;;
4959;SDS011;2495;48.200;11.532;2023-04-24T18:45:30;1.00;;;0.70;;
4959;SDS011;2495;48.200;11.532;2023-04-24T18:50:32;0.97;;;0.60;;
4959;SDS011;2495;48.200;11.532;2023-04-24T18:55:34;0.90;;;0.60;;
4959;SDS011;2495;48.200;11.532;2023-04-24T19:00:36;0.90;;;0.60;;
4959;SDS011;2495;48.200;11.532;2023-04-24T19:05:37;1.10;;;0.90;;
4959;SDS011;2495;48.200;11.532;2023-04-24T21:13:58;0.90;;;0.50;;
4959;SDS011;2495;48.200;11.532;2023-04-24T21:19:08;0.90;;;0.60;;
4959;SDS011;2495;48.200;11.532;2023-04-24T21:24:13;0.90;;;0.60;;
4959;SDS011;2495;48.200;11.532;2023-04-24T21:29:15;0.93;;;0.60;;
4959;SDS011;2495;48.200;11.532;2023-04-24T21:34:16;0.90;;;0.50;;
4959;SDS011;2495;48.200;11.532;2023-04-24T21:39:18;0.90;;;0.70;;
4959;SDS011;2495;48.200;11.532;2023-04-24T21:44:20;0.90;;;0.60;;
4959;SDS011;2495;48.200;11.532;2023-04-24T21:49:21;0.90;;;0.60;;
4959;SDS011;2495;48.200;11.532;2023-04-24T21:54:26;0.90;;;0.60;;
4959;SDS011;2495;48.200;11.532;2023-04-24T21:59:30;0.90;;;0.70;;
4959;SDS011;2495;48.200;11.532;2023-04-24T22:04:31;0.90;;;0.60;;
4959;SDS011;2495;48.200;11.532;2023-04-24T22:09:33;0.90;;;0.60;;
4959;SDS011;2495;48.200;11.532;2023-04-24T22:14:34;0.90;;;0.70;;
4959;SDS011;2495;48.200;11.532;2023-04-24T22:19:37;1.00;;;0.70;;
4959;SDS011;2495;48.200;11.532;2023-04-24T22:24:40;1.00;;;0.60;;
4959;SDS011;2495;48.200;11.532;2023-04-24T22:29:42;1.00;;;0.60;;
4959;SDS011;2495;48.200;11.532;2023-04-24T22:34:45;0.90;;;0.50;;
4959;SDS011;2495;48.200;11.532;2023-04-24T22:39:47;1.10;;;0.60;;
4959;SDS011;2495;48.200;11.532;2023-04-24T22:44:53;1.00;;;0.70;;
4959;SDS011;2495;48.200;11.532;2023-04-24T22:49:55;0.90;;;0.60;;
4959;SDS011;2495;48.200;11.532;2023-04-24T22:55:00;0.90;;;0.60;;
4959;SDS011;2495;48.200;11.532;2023-04-24T23:00:04;0.90;;;0.60;;
4959;SDS011;2495;48.200;11.532;2023-04-24T23:05:06;1.53;;;1.43;;
4959;SDS011;2495;48.200;11.532;2023-04-24T23:10:10;0.90;;;0.60;;
4959;SDS011;2495;48.200;11.532;2023-04-24T23:15:12;0.90;;;0.60;;
4959;SDS011;2495;48.200;11.532;2023-04-24T23:20:14;0.90;;;0.60;;
4959;SDS011;2495;48.200;11.532;2023-04-24T23:25:16;0.93;;;0.60;;
4959;SDS011;2495;48.200;11.532;2023-04-24T23:30:17;1.10;;;0.90;;
4959;SDS011;2495;48.200;11.532;2023-04-24T23:35:19;0.97;;;0.60;;
4959;SDS011;2495;48.200;11.532;2023-04-24T23:40:21;0.90;;;0.60;;
4959;SDS011;2495;48.200;11.532;2023-04-24T23:45:23;0.93;;;0.60;;
4959;SDS011;2495;48.200;11.532;2023-04-24T23:50:25;1.00;;;0.60;;
4959;SDS011;2495;48.200;11.532;2023-04-24T23:55:26;1.00;;;0.60;;
